Time;durP1;ratioP1;P1;durP2;ratioP2;P2;SDS_P1;SDS_P2;PMS_P1;PMS_P2;Temp;Humidity;BMP_temperature;BMP_pressure;BME280_temperature;BME280_humidity;BME280_pressure;Samples;Min_cycle;Max_cycle;Signal;HPM_P1;HPM_P2
2023/05/09 00:02:07;;;;;;;5.50;2.35;;;17.10;99.90;;;;;;5023740;28;20072;-76
2023/05/09 00:04:34;;;;;;;6.55;2.28;;;17.00;99.90;;;;;;5023947;28;20048;-76
2023/05/09 00:07:01;;;;;;;4.40;1.80;;;17.00;99.90;;;;;;5021841;28;20049;-76
2023/05/09 00:09:27;;;;;;;9.88;2.45;;;17.00;99.90;;;;;;5018451;28;20148;-76
2023/05/09 00:11:54;;;;;;;3.90;3.47;;;17.00;99.90;;;;;;5024187;28;20038;-76
2023/05/09 00:14:21;;;;;;;3.90;2.35;;;16.90;99.90;;;;;;5023444;28;20037;-76
2023/05/09 00:16:47;;;;;;;2.92;2.63;;;16.90;99.90;;;;;;5021019;28;20046;-76
2023/05/09 00:19:14;;;;;;;3.40;2.60;;;16.90;99.90;;;;;;5021734;28;20056;-75
2023/05/09 00:21:41;;;;;;;3.90;2.95;;;16.90;99.90;;;;;;5021674;28;20092;-76
2023/05/09 00:24:08;;;;;;;6.47;2.30;;;16.80;99.90;;;;;;5017872;28;20050;-76
2023/05/09 00:26:34;;;;;;;3.10;2.78;;;16.80;99.90;;;;;;5011621;28;20102;-76
2023/05/09 00:29:01;;;;;;;5.78;3.17;;;16.70;99.90;;;;;;5022067;28;20053;-76
2023/05/09 00:31:28;;;;;;;3.20;2.90;;;16.70;99.90;;;;;;5023055;28;20548;-76
2023/05/09 00:33:55;;;;;;;3.35;3.03;;;16.60;99.90;;;;;;5016663;28;20112;-76
2023/05/09 00:36:22;;;;;;;3.72;3.38;;;16.50;99.90;;;;;;5019161;28;20066;-76
2023/05/09 00:38:48;;;;;;;6.22;3.00;;;16.50;99.90;;;;;;5017327;28;20053;-76
2023/05/09 00:41:15;;;;;;;5.68;3.17;;;16.50;99.90;;;;;;5015671;28;20073;-76
2023/05/09 00:43:42;;;;;;;4.13;3.28;;;16.40;99.90;;;;;;5018392;28;20051;-76
2023/05/09 00:46:09;;;;;;;10.82;3.85;;;16.40;99.90;;;;;;5025339;28;20056;-76
2023/05/09 00:48:35;;;;;;;6.15;3.40;;;16.30;99.90;;;;;;5020974;28;20042;-76
2023/05/09 00:51:03;;;;;;;10.27;4.20;;;16.20;99.90;;;;;;5043532;23;20402;-83
2023/05/09 00:53:30;;;;;;;4.18;3.50;;;16.20;99.90;;;;;;5021783;28;20046;-83
2023/05/09 00:55:58;;;;;;;7.88;3.30;;;16.20;99.90;;;;;;5016271;28;20405;-83
2023/05/09 00:58:26;;;;;;;4.75;3.40;;;16.10;99.90;;;;;;5023602;28;20156;-83
2023/05/09 01:00:52;;;;;;;4.45;3.85;;;16.10;99.90;;;;;;5008634;28;20169;-81
2023/05/09 01:03:19;;;;;;;5.28;3.42;;;16.00;99.90;;;;;;5004496;28;20121;-84
2023/05/09 01:06:06;;;;;;;5.80;4.00;;;16.00;99.90;;;;;;5003227;28;20409;-83
2023/05/09 01:08:58;;;;;;;7.50;3.67;;;15.90;99.90;;;;;;5012558;28;20089;-84
2023/05/09 01:11:35;;;;;;;6.78;3.90;;;15.90;99.90;;;;;;4993018;28;20620;-83
2023/05/09 01:14:11;;;;;;;8.30;3.67;;;15.80;99.90;;;;;;5001976;28;20502;-82
2023/05/09 01:16:57;;;;;;;5.65;3.63;;;15.80;99.90;;;;;;5003588;28;20450;-84
2023/05/09 01:19:39;;;;;;;6.50;3.28;;;15.70;99.90;;;;;;4991510;28;20081;-82
2023/05/09 01:22:10;;;;;;;10.98;3.88;;;15.70;99.90;;;;;;4994184;28;20054;-82
2023/05/09 01:25:26;;;;;;;3.75;3.30;;;15.70;99.90;;;;;;4997598;28;20137;-83
2023/05/09 01:27:57;;;;;;;5.80;2.92;;;15.60;99.90;;;;;;4939164;28;20078;-84
2023/05/09 01:30:25;;;;;;;8.95;4.07;;;15.60;99.90;;;;;;5022276;28;20125;-85
2023/05/09 01:32:58;;;;;;;4.20;3.70;;;15.60;99.90;;;;;;5002373;28;20053;-84
2023/05/09 01:35:28;;;;;;;5.65;3.05;;;15.60;99.90;;;;;;5001714;28;20054;-82
2023/05/09 01:37:56;;;;;;;6.00;3.63;;;15.60;99.90;;;;;;5000136;28;20073;-84
2023/05/09 01:40:28;;;;;;;4.80;3.50;;;15.60;99.90;;;;;;5007079;28;20069;-82
2023/05/09 01:43:00;;;;;;;5.05;3.80;;;15.50;99.90;;;;;;5003799;28;20057;-84
2023/05/09 01:45:27;;;;;;;7.03;3.33;;;15.60;99.90;;;;;;5022562;28;20136;-84
2023/05/09 01:47:56;;;;;;;6.97;3.40;;;15.60;99.90;;;;;;5005562;28;20081;-82
2023/05/09 01:50:24;;;;;;;8.07;3.45;;;15.60;99.90;;;;;;5016896;28;20046;-84
2023/05/09 01:52:54;;;;;;;7.82;3.22;;;15.60;99.90;;;;;;4997518;28;20311;-82
2023/05/09 01:55:25;;;;;;;5.45;3.45;;;15.60;99.90;;;;;;4999770;28;20060;-84
2023/05/09 01:57:53;;;;;;;4.00;3.60;;;15.60;99.90;;;;;;5017155;28;20064;-83
2023/05/09 02:00:21;;;;;;;5.60;3.63;;;15.60;99.90;;;;;;5010135;28;20405;-83
2023/05/09 02:02:49;;;;;;;5.20;3.13;;;15.50;99.90;;;;;;5003651;28;20064;-83
2023/05/09 02:05:17;;;;;;;3.70;3.33;;;15.50;99.90;;;;;;4995724;28;20050;-83
2023/05/09 02:07:46;;;;;;;6.03;3.45;;;15.50;99.90;;;;;;4998962;28;20042;-84
2023/05/09 02:10:15;;;;;;;4.85;3.70;;;15.50;99.90;;;;;;4996818;28;20046;-83
2023/05/09 02:12:42;;;;;;;7.13;4.25;;;15.50;99.90;;;;;;5001825;28;20061;-84
2023/05/09 02:15:09;;;;;;;12.88;3.75;;;15.40;99.90;;;;;;5004414;28;20119;-83
2023/05/09 02:17:36;;;;;;;13.52;3.50;;;15.40;99.90;;;;;;5007736;28;20046;-83
2023/05/09 02:20:04;;;;;;;6.63;3.83;;;15.40;99.90;;;;;;4997876;28;20221;-83
2023/05/09 02:22:30;;;;;;;5.45;3.45;;;15.40;99.90;;;;;;5004645;28;20420;-83
2023/05/09 02:24:57;;;;;;;4.90;3.35;;;15.40;99.90;;;;;;5001909;28;20058;-84
2023/05/09 02:27:25;;;;;;;4.03;3.60;;;15.40;99.90;;;;;;5001584;28;20049;-84
2023/05/09 02:29:55;;;;;;;4.57;3.58;;;15.30;99.90;;;;;;5012801;28;20498;-84
2023/05/09 02:32:25;;;;;;;5.97;3.38;;;15.30;99.90;;;;;;5016643;28;20057;-83
2023/05/09 02:34:54;;;;;;;3.63;3.33;;;15.30;99.90;;;;;;5006177;28;20050;-84
2023/05/09 02:37:22;;;;;;;6.85;3.83;;;15.30;99.90;;;;;;5003577;28;20073;-84
2023/05/09 02:39:49;;;;;;;4.80;3.20;;;15.30;99.90;;;;;;5004166;28;20057;-84
2023/05/09 02:42:20;;;;;;;4.60;3.50;;;15.20;99.90;;;;;;5003129;28;20056;-84
2023/05/09 02:44:47;;;;;;;9.63;3.65;;;15.20;99.90;;;;;;5004789;28;20058;-83
2023/05/09 02:47:14;;;;;;;5.95;3.75;;;15.20;99.90;;;;;;5007809;28;20086;-83
2023/05/09 02:49:40;;;;;;;8.82;4.43;;;15.20;99.90;;;;;;5007510;28;20050;-83
2023/05/09 02:52:07;;;;;;;6.38;3.80;;;15.20;99.90;;;;;;5005448;28;20133;-84
2023/05/09 02:54:34;;;;;;;6.82;4.05;;;15.20;99.90;;;;;;5002148;28;20528;-83
2023/05/09 02:57:01;;;;;;;5.90;3.65;;;15.10;99.90;;;;;;5006820;28;20052;-81
2023/05/09 02:59:27;;;;;;;10.23;4.10;;;15.10;99.90;;;;;;5019008;28;20129;-84
2023/05/09 03:01:54;;;;;;;5.18;3.70;;;15.10;99.90;;;;;;5009751;28;20060;-84
2023/05/09 03:04:21;;;;;;;8.60;4.40;;;15.10;99.90;;;;;;5022145;28;20050;-83
2023/05/09 03:06:48;;;;;;;8.55;3.70;;;15.10;99.90;;;;;;5000606;28;20165;-84
2023/05/09 03:09:15;;;;;;;7.80;3.95;;;15.10;99.90;;;;;;5001179;28;20125;-84
2023/05/09 03:11:42;;;;;;;4.85;3.97;;;15.10;99.90;;;;;;5003973;28;20072;-84
2023/05/09 03:14:10;;;;;;;8.23;4.03;;;15.10;99.90;;;;;;5006098;28;20054;-83
2023/05/09 03:16:36;;;;;;;4.38;3.30;;;15.10;99.90;;;;;;5006807;28;20045;-83
2023/05/09 03:19:03;;;;;;;8.02;3.08;;;15.10;99.90;;;;;;5008673;28;20050;-82
2023/05/09 03:21:30;;;;;;;3.30;2.65;;;15.00;99.90;;;;;;5005972;28;20066;-85
2023/05/09 03:23:57;;;;;;;3.40;3.10;;;15.00;99.90;;;;;;5001332;28;20073;-82
2023/05/09 03:26:25;;;;;;;3.95;2.78;;;15.00;99.90;;;;;;5018637;28;20050;-85
2023/05/09 03:28:52;;;;;;;3.00;2.55;;;15.00;99.90;;;;;;5009376;28;20050;-83
2023/05/09 03:31:18;;;;;;;4.05;3.08;;;15.10;99.90;;;;;;5010295;28;20506;-83
2023/05/09 03:33:45;;;;;;;5.57;2.63;;;15.10;99.90;;;;;;5004495;28;20054;-83
2023/05/09 03:36:12;;;;;;;4.07;2.60;;;15.10;99.90;;;;;;5002218;28;20595;-83
2023/05/09 03:38:39;;;;;;;4.82;2.50;;;15.10;99.90;;;;;;4998180;28;20129;-84
2023/05/09 03:41:06;;;;;;;8.68;2.90;;;15.00;99.90;;;;;;5001643;28;20054;-83
2023/05/09 03:43:33;;;;;;;2.88;2.55;;;15.10;99.90;;;;;;5005792;28;20054;-84
2023/05/09 03:46:00;;;;;;;5.00;2.20;;;15.10;99.90;;;;;;5009080;28;20065;-84
2023/05/09 03:48:26;;;;;;;6.47;2.35;;;15.10;99.90;;;;;;5006853;28;20041;-84
2023/05/09 03:50:53;;;;;;;6.40;2.45;;;15.10;99.90;;;;;;4999214;28;20078;-85
2023/05/09 03:53:20;;;;;;;5.13;2.53;;;15.10;99.90;;;;;;5002858;28;20038;-82
2023/05/09 03:55:48;;;;;;;3.55;2.17;;;15.10;99.90;;;;;;5006424;28;20049;-84
2023/05/09 03:58:15;;;;;;;4.18;2.67;;;15.10;99.90;;;;;;5008574;28;20073;-82
2023/05/09 04:00:42;;;;;;;7.00;3.03;;;15.10;99.90;;;;;;5006314;28;20082;-84
2023/05/09 04:03:09;;;;;;;7.20;2.78;;;15.10;99.90;;;;;;5010834;28;20165;-82
2023/05/09 04:05:36;;;;;;;2.53;2.33;;;15.20;99.90;;;;;;5001998;28;20042;-84
2023/05/09 04:08:03;;;;;;;5.05;2.97;;;15.20;99.90;;;;;;5001305;28;20070;-83
2023/05/09 04:10:31;;;;;;;4.55;3.33;;;15.20;99.90;;;;;;5019093;28;20050;-84
2023/05/09 04:12:58;;;;;;;8.15;2.90;;;15.30;99.90;;;;;;5009264;28;20062;-84
2023/05/09 04:15:25;;;;;;;2.88;2.30;;;15.30;99.90;;;;;;5024456;28;20069;-83
2023/05/09 04:17:51;;;;;;;8.65;2.65;;;15.30;99.90;;;;;;5007124;28;20046;-84
2023/05/09 04:20:18;;;;;;;10.48;2.83;;;15.30;99.90;;;;;;5003971;28;20333;-84
2023/05/09 04:22:46;;;;;;;8.50;3.38;;;15.30;99.90;;;;;;4998894;28;20063;-84
2023/05/09 04:25:13;;;;;;;6.47;3.30;;;15.30;99.90;;;;;;4997294;28;20133;-83
2023/05/09 04:27:40;;;;;;;7.20;2.90;;;15.40;99.90;;;;;;5009948;28;20088;-81
2023/05/09 04:30:08;;;;;;;5.28;3.10;;;15.30;99.90;;;;;;5008150;28;20062;-84
2023/05/09 04:32:35;;;;;;;4.95;3.10;;;15.40;99.90;;;;;;5002980;28;20072;-83
2023/05/09 04:35:03;;;;;;;7.15;2.92;;;15.40;99.90;;;;;;5002024;28;20043;-84
2023/05/09 04:37:31;;;;;;;4.15;2.63;;;15.50;99.90;;;;;;5000628;28;20450;-82
2023/05/09 04:39:58;;;;;;;6.00;2.67;;;15.50;99.90;;;;;;4998131;28;20054;-84
2023/05/09 04:42:25;;;;;;;4.28;2.40;;;15.50;99.90;;;;;;5008368;28;20058;-84
2023/05/09 04:44:52;;;;;;;8.77;2.75;;;15.50;99.90;;;;;;5000973;28;20064;-84
2023/05/09 04:47:18;;;;;;;4.95;2.78;;;15.60;99.90;;;;;;5009181;28;20113;-83
2023/05/09 04:49:45;;;;;;;4.22;2.65;;;15.60;99.90;;;;;;5003492;28;20058;-82
2023/05/09 04:52:12;;;;;;;3.60;2.80;;;15.60;99.90;;;;;;4996201;28;20057;-84
2023/05/09 04:54:39;;;;;;;3.85;2.70;;;15.60;99.90;;;;;;4992554;28;20047;-84
2023/05/09 04:57:05;;;;;;;5.85;2.78;;;15.70;99.90;;;;;;5008420;28;20045;-83
2023/05/09 04:59:43;;;;;;;4.25;2.88;;;15.70;99.90;;;;;;5013543;28;20309;-84
2023/05/09 05:02:10;;;;;;;6.07;2.88;;;15.70;99.90;;;;;;5003759;28;20076;-86
2023/05/09 05:04:37;;;;;;;11.13;2.88;;;15.70;99.90;;;;;;5011980;28;20105;-84
2023/05/09 05:07:04;;;;;;;3.72;2.90;;;15.80;99.90;;;;;;5000244;28;20061;-83
2023/05/09 05:09:30;;;;;;;8.45;3.33;;;15.80;99.90;;;;;;5012313;28;20047;-84
2023/05/09 05:11:57;;;;;;;5.03;3.38;;;15.80;99.90;;;;;;5010206;28;20045;-84
2023/05/09 05:14:28;;;;;;;5.32;2.80;;;15.90;99.90;;;;;;5003065;28;20331;-84
2023/05/09 05:16:55;;;;;;;6.22;3.25;;;15.90;99.90;;;;;;5007564;28;20137;-84
2023/05/09 05:19:22;;;;;;;5.40;2.88;;;15.90;99.90;;;;;;5001986;28;20051;-82
2023/05/09 05:21:48;;;;;;;5.18;2.75;;;15.90;99.90;;;;;;5000162;28;20100;-84
2023/05/09 05:24:15;;;;;;;2.78;2.58;;;16.00;99.90;;;;;;4998870;28;20161;-85
2023/05/09 05:26:42;;;;;;;6.05;3.58;;;16.00;99.90;;;;;;5009597;28;20058;-85
2023/05/09 05:29:09;;;;;;;3.55;2.97;;;16.00;99.90;;;;;;5002559;28;20041;-84
2023/05/09 05:31:35;;;;;;;5.18;2.67;;;16.00;99.90;;;;;;5006571;28;20042;-85
2023/05/09 05:34:02;;;;;;;6.05;3.35;;;16.10;99.90;;;;;;4994911;28;20043;-83
2023/05/09 05:36:30;;;;;;;7.25;3.28;;;16.10;99.90;;;;;;4997899;28;20051;-84
2023/05/09 05:38:57;;;;;;;3.83;3.30;;;16.10;99.90;;;;;;4998777;28;20057;-84
2023/05/09 05:41:25;;;;;;;5.45;3.08;;;16.10;99.90;;;;;;5011230;28;20138;-84
2023/05/09 05:43:52;;;;;;;8.00;3.60;;;16.10;99.90;;;;;;5019716;28;20502;-84
2023/05/09 05:46:20;;;;;;;4.60;3.10;;;16.10;99.90;;;;;;5008736;28;20054;-84
2023/05/09 05:48:47;;;;;;;5.13;3.65;;;16.10;99.90;;;;;;5002842;28;20054;-84
2023/05/09 05:51:13;;;;;;;3.25;2.80;;;16.20;99.90;;;;;;5001949;28;20118;-84
2023/05/09 05:53:41;;;;;;;5.68;3.13;;;16.20;99.90;;;;;;5013376;28;20053;-85
2023/05/09 05:56:07;;;;;;;4.07;3.15;;;16.20;99.90;;;;;;5002719;28;20115;-84
2023/05/09 05:58:34;;;;;;;4.22;2.80;;;16.20;99.90;;;;;;5021373;28;20706;-85
2023/05/09 06:01:01;;;;;;;5.70;3.17;;;16.30;99.90;;;;;;5003330;28;20121;-86
2023/05/09 06:03:28;;;;;;;11.60;3.20;;;16.30;99.90;;;;;;5003101;28;20082;-85
2023/05/09 06:05:55;;;;;;;7.35;3.00;;;16.40;99.90;;;;;;5001489;28;20089;-86
2023/05/09 06:08:22;;;;;;;3.60;2.90;;;16.40;99.90;;;;;;4998780;28;20093;-85
2023/05/09 06:10:49;;;;;;;6.05;2.90;;;16.50;99.90;;;;;;5007657;28;20085;-86
2023/05/09 06:13:15;;;;;;;5.95;3.30;;;16.50;99.90;;;;;;5006063;28;20485;-85
2023/05/09 06:15:42;;;;;;;6.40;3.40;;;16.50;99.90;;;;;;5009103;28;20133;-85
2023/05/09 06:18:09;;;;;;;5.68;2.83;;;16.60;99.90;;;;;;5003787;28;20061;-85
2023/05/09 06:20:36;;;;;;;3.60;2.38;;;16.60;99.90;;;;;;5017167;28;20054;-85
2023/05/09 06:23:03;;;;;;;3.92;2.58;;;16.70;99.90;;;;;;4997373;28;20053;-85
2023/05/09 06:25:29;;;;;;;3.70;2.80;;;16.70;99.90;;;;;;5022968;28;20054;-85
2023/05/09 06:27:56;;;;;;;3.08;2.40;;;16.80;99.90;;;;;;5007331;28;20121;-82
2023/05/09 06:30:23;;;;;;;6.90;2.80;;;16.80;99.90;;;;;;5011333;28;20114;-84
2023/05/09 06:32:53;;;;;;;4.43;2.80;;;16.90;99.90;;;;;;5008538;28;20047;-84
2023/05/09 06:35:20;;;;;;;4.43;3.00;;;16.90;99.90;;;;;;4998350;28;20054;-83
2023/05/09 06:37:47;;;;;;;3.70;3.15;;;16.90;99.90;;;;;;4996830;28;20046;-83
2023/05/09 06:40:15;;;;;;;3.90;3.03;;;17.00;99.90;;;;;;5002209;28;20060;-85
2023/05/09 06:42:43;;;;;;;4.18;2.55;;;17.00;99.90;;;;;;5004094;28;20070;-85
2023/05/09 06:45:10;;;;;;;7.07;2.55;;;17.10;99.90;;;;;;5004636;28;20060;-84
2023/05/09 06:47:37;;;;;;;5.05;2.95;;;17.10;99.90;;;;;;5006080;28;20057;-85
2023/05/09 06:50:04;;;;;;;3.22;2.67;;;17.20;99.90;;;;;;4995528;28;20516;-84
2023/05/09 06:52:31;;;;;;;5.97;2.90;;;17.30;99.90;;;;;;5009688;28;20125;-84
2023/05/09 06:54:58;;;;;;;4.18;2.55;;;17.30;99.90;;;;;;5006951;28;20136;-84
2023/05/09 06:57:25;;;;;;;3.70;2.25;;;17.40;99.90;;;;;;5004203;28;20059;-85
2023/05/09 06:59:51;;;;;;;2.80;2.50;;;17.50;99.90;;;;;;5000678;28;20050;-84
2023/05/09 07:02:18;;;;;;;2.20;1.92;;;17.60;99.90;;;;;;5004217;28;20047;-84
2023/05/09 07:04:45;;;;;;;1.90;1.70;;;17.70;99.90;;;;;;5008731;28;20141;-85
2023/05/09 07:07:12;;;;;;;2.95;1.60;;;17.80;99.90;;;;;;4996258;28;20065;-84
2023/05/09 07:09:39;;;;;;;2.10;1.80;;;17.90;99.90;;;;;;5004748;28;20104;-84
2023/05/09 07:12:05;;;;;;;1.52;1.38;;;18.00;99.90;;;;;;5005946;28;20082;-86
2023/05/09 07:14:32;;;;;;;1.75;1.45;;;18.20;99.90;;;;;;5007454;28;20089;-84
2023/05/09 07:16:59;;;;;;;1.85;1.23;;;18.30;99.90;;;;;;5005239;28;20129;-83
2023/05/09 07:19:45;;;;;;;2.88;1.65;;;18.40;99.90;;;;;;4999824;28;20054;-84
2023/05/09 07:22:12;;;;;;;3.10;1.48;;;18.60;99.90;;;;;;4999066;28;20483;-84
2023/05/09 07:24:39;;;;;;;1.90;1.50;;;18.70;99.90;;;;;;5018656;28;20057;-84
2023/05/09 07:27:06;;;;;;;1.75;1.50;;;18.80;99.90;;;;;;5009942;28;20072;-85
2023/05/09 07:29:32;;;;;;;3.58;1.63;;;18.80;99.90;;;;;;5006469;28;20418;-83
2023/05/09 07:31:59;;;;;;;4.60;1.83;;;18.90;99.90;;;;;;5005560;28;20049;-84
2023/05/09 07:34:26;;;;;;;2.95;1.77;;;19.00;99.90;;;;;;5001178;28;20050;-86
2023/05/09 07:36:53;;;;;;;1.65;1.55;;;19.00;99.90;;;;;;5000106;28;20494;-84
2023/05/09 07:39:20;;;;;;;2.05;1.38;;;19.00;99.90;;;;;;5002353;28;20117;-84
2023/05/09 07:41:46;;;;;;;1.90;1.52;;;19.00;99.90;;;;;;5010399;28;20141;-86
2023/05/09 07:44:14;;;;;;;2.95;2.10;;;19.00;99.90;;;;;;5005875;28;20278;-84
2023/05/09 07:46:41;;;;;;;2.83;1.98;;;19.00;99.90;;;;;;5007605;28;20108;-83
2023/05/09 07:49:08;;;;;;;2.30;1.70;;;19.00;99.90;;;;;;5000288;28;20054;-84
2023/05/09 07:51:35;;;;;;;4.88;2.00;;;19.00;99.90;;;;;;5000377;28;20049;-85
2023/05/09 07:54:02;;;;;;;3.22;1.95;;;19.00;99.90;;;;;;5013216;28;20078;-85
2023/05/09 07:56:29;;;;;;;3.72;2.08;;;19.10;99.90;;;;;;5005179;28;20545;-84
2023/05/09 07:58:56;;;;;;;4.13;1.92;;;19.00;99.90;;;;;;4993834;28;20149;-85
2023/05/09 08:01:22;;;;;;;2.38;1.90;;;19.10;99.90;;;;;;4997713;28;20053;-85
2023/05/09 08:03:49;;;;;;;3.33;2.05;;;19.10;99.90;;;;;;4999205;28;20078;-85
2023/05/09 08:06:16;;;;;;;4.22;2.17;;;19.10;99.90;;;;;;5000566;28;20054;-84
2023/05/09 08:08:43;;;;;;;3.20;1.75;;;19.10;99.90;;;;;;5001237;28;20050;-85
2023/05/09 08:11:10;;;;;;;1.75;1.42;;;19.20;99.90;;;;;;5001291;28;20058;-83
2023/05/09 08:13:37;;;;;;;1.70;1.60;;;19.20;99.90;;;;;;5003325;28;20494;-85
2023/05/09 08:16:05;;;;;;;2.72;1.90;;;19.30;99.90;;;;;;5004161;28;20080;-84
2023/05/09 08:18:32;;;;;;;4.53;1.70;;;19.30;99.90;;;;;;5000625;28;20052;-85
2023/05/09 08:20:59;;;;;;;3.03;1.70;;;19.40;99.90;;;;;;5003053;28;20058;-85
2023/05/09 08:23:26;;;;;;;3.47;1.55;;;19.40;99.90;;;;;;5000926;28;20057;-85
2023/05/09 08:25:54;;;;;;;3.08;1.42;;;19.50;99.90;;;;;;4999871;28;20137;-84
2023/05/09 08:28:22;;;;;;;3.05;1.50;;;19.50;99.90;;;;;;5001828;28;20050;-85
2023/05/09 08:30:50;;;;;;;2.20;1.80;;;19.60;99.90;;;;;;5007222;28;20121;-84
2023/05/09 08:33:17;;;;;;;3.05;1.50;;;19.60;99.90;;;;;;4997632;28;20046;-82
2023/05/09 08:35:44;;;;;;;3.65;1.33;;;19.60;99.90;;;;;;4993238;28;20066;-82
2023/05/09 08:38:11;;;;;;;3.47;1.73;;;19.70;99.90;;;;;;5000142;28;20141;-84
2023/05/09 08:40:40;;;;;;;13.98;2.47;;;19.80;99.90;;;;;;5003425;28;20081;-84
2023/05/09 08:43:07;;;;;;;1.38;1.20;;;19.80;99.90;;;;;;4993873;28;20048;-86
2023/05/09 08:45:37;;;;;;;2.38;1.30;;;19.90;99.90;;;;;;5000602;28;20446;-85
2023/05/09 08:48:05;;;;;;;;;;;19.90;99.90;;;;;;5003703;28;20137;-84
2023/05/09 08:50:34;;;;;;;2.45;1.20;;;20.00;99.90;;;;;;4998388;28;19925;-85
2023/05/09 08:53:01;;;;;;;1.63;1.02;;;20.10;99.90;;;;;;4993316;28;20142;-82
2023/05/09 08:55:28;;;;;;;1.60;1.10;;;20.20;99.90;;;;;;4993502;28;21031;-83
2023/05/09 08:57:56;;;;;;;1.27;1.17;;;20.20;99.90;;;;;;5022077;28;20052;-82
2023/05/09 09:00:25;;;;;;;2.03;1.23;;;20.30;99.90;;;;;;5000915;28;20050;-83
2023/05/09 09:02:52;;;;;;;3.15;1.20;;;20.40;99.90;;;;;;5002759;28;20134;-84
2023/05/09 09:05:22;;;;;;;1.38;1.10;;;20.50;99.90;;;;;;5003620;28;20415;-83
2023/05/09 09:08:09;;;;;;;2.67;1.30;;;20.60;99.90;;;;;;5005118;28;20066;-78
2023/05/09 09:10:41;;;;;;;3.40;1.20;;;20.70;99.90;;;;;;5005624;28;20038;-81
2023/05/09 09:13:10;;;;;;;2.17;1.10;;;20.80;99.90;;;;;;5006154;28;20073;-84
2023/05/09 09:15:39;;;;;;;3.35;1.23;;;20.80;99.90;;;;;;5006297;28;20046;-82
2023/05/09 09:18:15;;;;;;;2.78;1.30;;;20.90;99.90;;;;;;5007005;28;20042;-83
2023/05/09 09:20:48;;;;;;;2.13;1.20;;;21.00;99.90;;;;;;4999230;28;20082;-82
2023/05/09 09:23:22;;;;;;;4.07;1.30;;;21.10;99.90;;;;;;5006412;28;20058;-82
2023/05/09 09:26:00;;;;;;;2.38;1.00;;;21.10;99.90;;;;;;5025522;28;20057;-83
2023/05/09 09:28:27;;;;;;;1.98;1.10;;;21.20;99.90;;;;;;5005128;28;20057;-84
2023/05/09 09:30:54;;;;;;;1.08;0.82;;;21.20;99.90;;;;;;5024792;28;20104;-82
2023/05/09 09:33:22;;;;;;;2.30;1.25;;;21.30;99.90;;;;;;5000895;28;20047;-83
2023/05/09 09:35:51;;;;;;;1.38;1.15;;;21.30;99.90;;;;;;4999623;28;20108;-82
2023/05/09 09:38:19;;;;;;;3.85;1.40;;;21.40;99.90;;;;;;5001231;28;20045;-82
2023/05/09 09:40:57;;;;;;;1.50;0.85;;;21.50;99.90;;;;;;5003658;28;20054;-82
2023/05/09 09:43:29;;;;;;;1.35;0.77;;;21.50;99.90;;;;;;5004703;28;20043;-82
2023/05/09 09:45:56;;;;;;;2.35;0.90;;;21.50;99.90;;;;;;5003699;28;20042;-83
2023/05/09 09:48:31;;;;;;;2.38;0.90;;;21.50;99.90;;;;;;5002783;28;20565;-82
2023/05/09 09:51:06;;;;;;;5.45;1.10;;;21.60;99.90;;;;;;5002227;28;20050;-82
2023/05/09 09:53:38;;;;;;;2.28;1.30;;;21.70;99.90;;;;;;5002426;28;20074;-84
2023/05/09 09:56:06;;;;;;;2.53;1.00;;;21.70;99.90;;;;;;5009418;28;20074;-82
2023/05/09 09:58:33;;;;;;;2.75;1.08;;;21.70;99.90;;;;;;5007609;28;20057;-82
2023/05/09 10:01:08;;;;;;;3.63;1.10;;;21.80;99.90;;;;;;5013923;28;20125;-82
2023/05/09 10:03:40;;;;;;;1.02;0.93;;;21.90;99.90;;;;;;5013807;28;20058;-83
2023/05/09 10:06:11;;;;;;;1.30;0.90;;;22.00;99.90;;;;;;5009434;28;20046;-86
2023/05/09 10:08:39;;;;;;;0.80;0.80;;;22.10;99.90;;;;;;5013431;28;20047;-84
2023/05/09 10:11:08;;;;;;;0.88;0.75;;;22.20;99.90;;;;;;5018043;28;20425;-84
2023/05/09 10:13:37;;;;;;;1.13;1.00;;;22.30;99.90;;;;;;5011477;28;20050;-84
2023/05/09 10:16:04;;;;;;;1.08;0.90;;;22.30;99.90;;;;;;5004477;28;20061;-84
2023/05/09 10:18:33;;;;;;;2.03;0.90;;;22.30;99.90;;;;;;5004549;28;20054;-84
2023/05/09 10:21:02;;;;;;;2.13;0.68;;;22.30;99.90;;;;;;5010121;28;20074;-84
2023/05/09 10:23:30;;;;;;;1.20;0.93;;;22.30;99.90;;;;;;5015529;28;20041;-85
2023/05/09 10:26:27;;;;;;;0.88;0.80;;;22.40;99.90;;;;;;5013526;28;20061;-84
2023/05/09 10:28:56;;;;;;;0.88;0.70;;;22.40;99.90;;;;;;5018241;28;20069;-84
2023/05/09 10:31:28;;;;;;;1.55;1.00;;;22.50;99.90;;;;;;4995210;28;20077;-85
2023/05/09 10:34:00;;;;;;;0.60;0.60;;;22.50;99.90;;;;;;4995875;28;20047;-81
2023/05/09 10:36:27;;;;;;;2.70;0.80;;;22.50;99.90;;;;;;4989854;28;20165;-82
2023/05/09 10:38:55;;;;;;;1.73;0.73;;;22.60;99.90;;;;;;4992330;28;20050;-84
2023/05/09 10:41:22;;;;;;;1.75;0.70;;;22.70;99.90;;;;;;4993149;28;20074;-84
2023/05/09 10:43:50;;;;;;;2.33;0.75;;;22.70;99.90;;;;;;5000909;28;20140;-83
2023/05/09 10:46:17;;;;;;;1.35;0.90;;;22.80;99.90;;;;;;4998755;28;20073;-83
2023/05/09 10:48:44;;;;;;;2.40;0.60;;;22.90;99.90;;;;;;4995307;28;20049;-85
2023/05/09 10:51:11;;;;;;;4.85;0.80;;;23.00;99.90;;;;;;4996432;28;20049;-83
2023/05/09 10:53:47;;;;;;;2.15;1.15;;;23.10;99.90;;;;;;5004804;28;20043;-84
2023/05/09 10:56:25;;;;;;;4.40;0.70;;;23.20;99.90;;;;;;5009979;28;20046;-85
2023/05/09 10:58:53;;;;;;;0.90;0.60;;;23.30;99.90;;;;;;4992189;28;20125;-83
2023/05/09 11:01:36;;;;;;;0.95;0.50;;;23.30;99.90;;;;;;5002777;28;20069;-81
2023/05/09 11:04:10;;;;;;;5.70;0.75;;;23.40;99.90;;;;;;4997413;28;20042;-80
2023/05/09 11:06:44;;;;;;;3.70;0.65;;;23.40;99.90;;;;;;5014040;28;20126;-83
2023/05/09 11:09:30;;;;;;;4.35;0.73;;;23.40;99.90;;;;;;5010925;28;20460;-83
2023/05/09 11:12:06;;;;;;;0.82;0.60;;;23.50;99.90;;;;;;5003192;28;20042;-82
2023/05/09 11:14:38;;;;;;;1.60;0.60;;;23.50;99.90;;;;;;5003364;28;20043;-83
2023/05/09 11:17:13;;;;;;;2.35;0.68;;;23.50;99.90;;;;;;5000416;28;20042;-82
2023/05/09 11:19:46;;;;;;;3.22;0.80;;;23.60;99.90;;;;;;4998723;28;20061;-83
2023/05/09 11:22:26;;;;;;;1.40;0.82;;;23.60;99.90;;;;;;4996662;28;20121;-80
2023/05/09 11:25:09;;;;;;;;;;;23.70;99.90;;;;;;5011197;28;20046;-83
2023/05/09 11:27:42;;;;;;;0.65;0.65;;;23.80;99.90;;;;;;5005729;28;20004;-84
2023/05/09 11:30:11;;;;;;;0.95;0.73;;;23.80;99.90;;;;;;5002974;28;20049;-82
2023/05/09 11:32:54;;;;;;;1.93;0.60;;;23.90;99.90;;;;;;5000891;28;20508;-84
2023/05/09 11:35:22;;;;;;;0.85;0.65;;;23.90;99.90;;;;;;4994473;28;20308;-84
2023/05/09 11:37:50;;;;;;;3.25;0.73;;;24.00;99.90;;;;;;5020515;28;20045;-84
2023/05/09 11:40:21;;;;;;;2.05;0.70;;;24.00;99.90;;;;;;5009370;28;20053;-84
2023/05/09 11:42:52;;;;;;;0.90;0.60;;;24.00;99.90;;;;;;5003728;28;20068;-86
2023/05/09 11:45:25;;;;;;;2.50;0.60;;;24.00;99.90;;;;;;5002674;28;20132;-85
2023/05/09 11:47:53;;;;;;;2.08;0.70;;;24.00;99.90;;;;;;5009802;28;20078;-83
2023/05/09 11:50:20;;;;;;;1.52;0.70;;;24.10;99.90;;;;;;4996942;28;20503;-85
2023/05/09 11:52:48;;;;;;;1.52;0.80;;;24.10;99.90;;;;;;5045281;23;20589;-75
2023/05/09 11:55:17;;;;;;;0.63;0.63;;;24.10;99.90;;;;;;5036691;28;20138;-77
2023/05/09 11:57:50;;;;;;;0.60;0.60;;;24.10;99.90;;;;;;5040267;28;20049;-77
2023/05/09 12:00:18;;;;;;;1.60;0.80;;;24.10;99.90;;;;;;5043010;28;20068;-76
2023/05/09 12:02:45;;;;;;;1.25;0.98;;;24.20;99.90;;;;;;5045168;28;20049;-77
2023/05/09 12:05:17;;;;;;;1.13;0.60;;;24.20;99.90;;;;;;5017805;28;20450;-77
2023/05/09 12:07:45;;;;;;;0.73;0.60;;;24.20;99.90;;;;;;5023084;28;20061;-77
2023/05/09 12:10:18;;;;;;;1.35;0.50;;;24.30;99.90;;;;;;5024289;28;20054;-76
2023/05/09 12:12:47;;;;;;;1.10;0.70;;;24.30;99.90;;;;;;5019377;28;20129;-78
2023/05/09 12:15:15;;;;;;;1.15;0.70;;;24.40;99.90;;;;;;5023025;28;20046;-77
2023/05/09 12:17:43;;;;;;;1.90;0.50;;;24.50;99.90;;;;;;5024648;28;20057;-76
2023/05/09 12:20:11;;;;;;;0.80;0.70;;;24.50;99.90;;;;;;5020354;28;20061;-76
2023/05/09 12:22:42;;;;;;;1.52;0.90;;;24.50;99.90;;;;;;5023112;28;20084;-76
2023/05/09 12:25:11;;;;;;;1.70;1.00;;;24.60;99.90;;;;;;5022521;28;20095;-76
2023/05/09 12:27:40;;;;;;;1.08;0.70;;;24.60;99.90;;;;;;5020547;28;20141;-77
2023/05/09 12:30:09;;;;;;;3.83;0.70;;;24.60;99.90;;;;;;5024224;28;20057;-75
2023/05/09 12:32:38;;;;;;;1.60;0.50;;;24.60;99.90;;;;;;5021830;28;20140;-77
2023/05/09 12:35:09;;;;;;;1.63;0.70;;;24.60;99.90;;;;;;5020411;28;20104;-76
2023/05/09 12:37:36;;;;;;;;;;;24.70;99.90;;;;;;5015375;28;20588;-77
2023/05/09 12:40:10;;;;;;;3.08;0.77;;;24.60;99.90;;;;;;5022321;28;19947;-76
2023/05/09 12:42:37;;;;;;;1.73;0.80;;;24.60;99.90;;;;;;5023475;28;20053;-76
2023/05/09 12:45:07;;;;;;;4.05;0.70;;;24.50;99.90;;;;;;5022958;28;20053;-76
2023/05/09 12:47:34;;;;;;;1.23;0.77;;;24.50;99.90;;;;;;5021337;28;20581;-76
2023/05/09 12:50:03;;;;;;;1.73;0.70;;;24.60;99.90;;;;;;5021011;28;20052;-76
2023/05/09 12:52:35;;;;;;;1.85;0.75;;;24.50;99.90;;;;;;5019901;28;20064;-76
2023/05/09 12:55:13;;;;;;;1.25;0.60;;;24.50;99.90;;;;;;5021738;28;20514;-76
2023/05/09 12:57:43;;;;;;;0.95;0.50;;;24.60;99.90;;;;;;5023053;28;20497;-77